Time;durP1;ratioP1;P1;durP2;ratioP2;P2;SDS_P1;SDS_P2;PMS_P1;PMS_P2;Temp;Humidity;BMP_temperature;BMP_pressure;BME280_temperature;BME280_humidity;BME280_pressure;Samples;Min_cycle;Max_cycle;Signal;HPM_P1;HPM_P2
2023/06/28 00:01:03;;;;;;;8.10;3.60;;;;;;;16.05;100.00;101885.44;4974518;28;20027;-78
2023/06/28 00:03:28;;;;;;;6.07;3.35;;;;;;;15.97;100.00;101878.16;4974437;28;20027;-77
2023/06/28 00:05:54;;;;;;;8.52;3.60;;;;;;;15.86;100.00;101882.44;4974433;28;20019;-77
2023/06/28 00:08:19;;;;;;;8.02;4.38;;;;;;;15.84;100.00;101885.16;4974222;28;20023;-79
2023/06/28 00:10:45;;;;;;;8.77;4.00;;;;;;;15.78;100.00;101877.75;4974303;28;20050;-77
2023/06/28 00:13:11;;;;;;;7.20;4.10;;;;;;;15.76;100.00;101867.44;4974220;28;20018;-78
2023/06/28 00:15:36;;;;;;;11.93;4.50;;;;;;;15.87;100.00;101876.28;4956876;28;20088;-78
2023/06/28 00:18:04;;;;;;;7.63;3.97;;;;;;;15.93;100.00;101875.88;4974094;28;20030;-78
2023/06/28 00:20:30;;;;;;;6.20;3.78;;;;;;;15.93;100.00;101876.69;4974317;28;20018;-78
2023/06/28 00:22:55;;;;;;;6.82;3.90;;;;;;;16.01;100.00;101883.97;4974100;28;20030;-80
2023/06/28 00:25:21;;;;;;;7.22;3.55;;;;;;;16.02;100.00;101881.25;4974053;28;20026;-80
2023/06/28 00:27:46;;;;;;;7.57;4.10;;;;;;;16.05;100.00;101885.44;4973912;28;20031;-80
2023/06/28 00:30:12;;;;;;;8.32;3.85;;;;;;;16.02;100.00;101875.22;4973985;28;20034;-79
2023/06/28 00:32:38;;;;;;;7.57;3.88;;;;;;;15.95;100.00;101866.16;4974042;28;20037;-79
2023/06/28 00:35:05;;;;;;;9.63;3.83;;;;;;;16.08;100.00;101894.81;4973950;28;20034;-79
2023/06/28 00:37:30;;;;;;;7.28;3.67;;;;;;;16.08;100.00;101894.81;4973885;28;20027;-78
2023/06/28 00:39:56;;;;;;;9.00;3.97;;;;;;;15.96;100.00;101870.44;4973440;28;20120;-79
2023/06/28 00:42:21;;;;;;;7.60;4.45;;;;;;;16.09;100.00;101886.03;4974072;28;20043;-78
2023/06/28 00:44:47;;;;;;;8.15;4.32;;;;;;;16.10;100.00;101893.75;4973789;28;20027;-78
2023/06/28 00:47:14;;;;;;;8.55;4.90;;;;;;;16.03;100.00;101879.50;4973889;28;20035;-78
2023/06/28 00:49:40;;;;;;;8.25;5.32;;;;;;;16.07;100.00;101888.75;4973665;28;20515;-77
2023/06/28 00:52:06;;;;;;;10.98;5.43;;;;;;;16.11;100.00;101891.97;4972942;28;20062;-80
2023/06/28 00:54:32;;;;;;;8.57;5.45;;;;;;;16.09;100.00;101891.25;4973514;28;20026;-78
2023/06/28 00:56:59;;;;;;;11.15;5.25;;;;;;;15.97;100.00;101883.34;4970068;28;20473;-79
2023/06/28 00:59:24;;;;;;;8.75;5.18;;;;;;;16.06;100.00;101898.34;4954398;29;20027;-78
2023/06/28 01:01:50;;;;;;;9.68;5.72;;;;;;;15.97;100.00;101878.16;4954454;29;20079;-78
2023/06/28 01:04:16;;;;;;;8.85;6.10;;;;;;;15.90;100.00;101865.63;4954363;29;20070;-79
2023/06/28 01:06:51;;;;;;;10.57;5.80;;;;;;;15.88;100.00;101872.72;4937097;29;20099;-77
2023/06/28 01:09:18;;;;;;;10.95;5.40;;;;;;;15.97;100.00;101887.72;4953982;29;20062;-77
2023/06/28 01:11:43;;;;;;;10.70;5.30;;;;;;;15.94;100.00;101890.56;4954296;29;20027;-77
2023/06/28 01:14:09;;;;;;;7.90;5.07;;;;;;;15.74;100.00;101855.47;4953987;29;20090;-78
2023/06/28 01:16:34;;;;;;;8.40;5.22;;;;;;;15.89;100.00;101869.19;4954229;29;20037;-77
2023/06/28 01:19:03;;;;;;;8.88;5.28;;;;;;;15.94;100.00;101890.56;4954452;29;20477;-78
2023/06/28 01:21:33;;;;;;;7.72;5.00;;;;;;;15.89;100.00;101884.81;4954300;29;20085;-79
2023/06/28 01:24:02;;;;;;;9.73;4.77;;;;;;;15.96;100.00;101884.28;4953908;29;20035;-78
2023/06/28 01:26:27;;;;;;;8.75;4.38;;;;;;;15.84;100.00;101861.69;4954198;29;20279;-77
2023/06/28 01:28:53;;;;;;;7.57;4.10;;;;;;;15.72;100.00;101852.94;4954274;29;20143;-77
2023/06/28 01:31:18;;;;;;;7.60;4.03;;;;;;;15.90;100.00;101886.47;4954090;29;20535;-79
2023/06/28 01:33:45;;;;;;;6.88;4.18;;;;;;;15.90;100.00;101879.50;4954097;29;20118;-77
2023/06/28 01:36:10;;;;;;;9.15;5.00;;;;;;;15.77;100.00;101871.69;4936710;29;20036;-77
2023/06/28 01:38:39;;;;;;;7.28;4.53;;;;;;;15.83;100.00;101877.41;4936606;29;20043;-77
2023/06/28 01:41:06;;;;;;;8.18;4.90;;;;;;;15.62;100.00;101846.69;4954121;29;20035;-78
2023/06/28 01:43:32;;;;;;;8.93;5.20;;;;;;;15.70;100.00;101860.03;4954076;29;20051;-77
2023/06/28 01:45:58;;;;;;;10.73;5.95;;;;;;;15.80;100.00;101875.84;4953869;29;20070;-77
2023/06/28 01:48:24;;;;;;;8.07;4.82;;;;;;;15.75;100.00;101865.75;4954094;29;20036;-77
2023/06/28 01:50:49;;;;;;;7.88;4.97;;;;;;;15.81;100.00;101881.91;4953880;29;20024;-76
2023/06/28 01:53:15;;;;;;;11.88;4.70;;;;;;;15.81;100.00;101879.28;4953647;28;20392;-77
2023/06/28 01:55:40;;;;;;;10.82;5.20;;;;;;;15.73;100.00;101870.25;4953756;29;20469;-77
2023/06/28 01:58:05;;;;;;;10.25;5.03;;;;;;;15.70;100.00;101862.63;4953895;29;20071;-77
2023/06/28 02:00:31;;;;;;;9.55;5.25;;;;;;;15.75;100.00;101870.13;4953799;29;20027;-77
2023/06/28 02:02:56;;;;;;;8.75;5.10;;;;;;;15.63;100.00;101837.97;4955981;28;20031;-78
2023/06/28 02:05:21;;;;;;;8.35;4.60;;;;;;;15.68;100.00;101855.88;4957323;29;20031;-77
2023/06/28 02:07:47;;;;;;;9.00;4.75;;;;;;;15.75;100.00;101872.75;4957239;29;20110;-78
2023/06/28 02:10:12;;;;;;;9.13;4.90;;;;;;;15.61;100.00;101850.22;4957058;29;20019;-77
2023/06/28 02:12:38;;;;;;;7.35;4.85;;;;;;;15.61;100.00;101845.03;4957232;29;20429;-77
2023/06/28 02:15:05;;;;;;;8.07;4.72;;;;;;;15.61;100.00;101845.03;4957093;29;20553;-77
2023/06/28 02:17:31;;;;;;;10.80;4.43;;;;;;;15.70;100.00;101859.19;4956970;29;20440;-77
2023/06/28 02:19:57;;;;;;;8.63;4.47;;;;;;;15.71;100.00;101866.91;4956918;29;20098;-79
2023/06/28 02:22:23;;;;;;;9.93;4.55;;;;;;;15.69;100.00;101858.34;4957159;29;20035;-79
2023/06/28 02:24:48;;;;;;;6.82;4.20;;;;;;;15.65;100.00;101854.31;4956974;29;20086;-78
2023/06/28 02:27:14;;;;;;;8.63;4.20;;;;;;;15.66;100.00;101858.56;4957014;29;20121;-79
2023/06/28 02:29:39;;;;;;;9.73;4.85;;;;;;;15.65;100.00;101858.69;4956928;29;20094;-77
2023/06/28 02:32:05;;;;;;;10.02;4.95;;;;;;;15.58;100.00;101842.59;4956557;29;20031;-78
2023/06/28 02:34:30;;;;;;;8.13;4.72;;;;;;;15.64;100.00;101855.25;4957054;29;20110;-77
2023/06/28 02:36:56;;;;;;;10.07;4.40;;;;;;;15.61;100.00;101852.84;4956793;29;20023;-77
2023/06/28 02:39:21;;;;;;;8.68;4.65;;;;;;;15.40;100.00;101826.44;4956584;29;20051;-77
2023/06/28 02:41:47;;;;;;;11.75;4.88;;;;;;;15.43;100.00;101830.59;4956763;29;20031;-78
2023/06/28 02:44:13;;;;;;;7.78;4.50;;;;;;;15.44;100.00;101832.31;4939335;29;20039;-77
2023/06/28 02:46:38;;;;;;;7.35;4.32;;;;;;;15.57;100.00;101858.34;4956498;29;20045;-78
2023/06/28 02:49:06;;;;;;;7.55;4.60;;;;;;;15.51;100.00;101854.34;4956647;29;20023;-78
2023/06/28 02:51:31;;;;;;;8.00;4.30;;;;;;;15.50;100.00;101850.94;4956704;29;20457;-78
2023/06/28 02:53:57;;;;;;;9.38;4.40;;;;;;;15.21;100.00;101815.59;4956328;29;20107;-78
2023/06/28 02:56:23;;;;;;;7.57;4.65;;;;;;;15.41;100.00;101843.72;4956566;29;20493;-78
2023/06/28 02:58:49;;;;;;;8.63;4.55;;;;;;;15.43;100.00;101846.22;4956474;29;20472;-78
2023/06/28 03:01:15;;;;;;;10.38;4.28;;;;;;;15.45;100.00;101847.81;4956214;29;20027;-78
2023/06/28 03:03:40;;;;;;;7.80;4.50;;;;;;;15.41;100.00;101850.72;4956114;29;20465;-78
2023/06/28 03:06:05;;;;;;;7.45;4.25;;;;;;;15.39;100.00;101849.97;4956238;29;20116;-79
2023/06/28 03:08:31;;;;;;;8.60;4.53;;;;;;;15.39;100.00;101858.63;4956262;29;20023;-78
2023/06/28 03:10:56;;;;;;;7.47;4.25;;;;;;;15.40;100.00;101847.28;4955875;29;20114;-78
2023/06/28 03:13:21;;;;;;;7.15;4.30;;;;;;;15.38;100.00;101849.16;4955355;28;20034;-78
2023/06/28 03:15:47;;;;;;;9.20;4.30;;;;;;;15.36;100.00;101845.81;4955899;29;20122;-78
2023/06/28 03:18:12;;;;;;;9.13;4.70;;;;;;;15.06;100.00;101801.03;4955925;29;20027;-77
2023/06/28 03:20:38;;;;;;;10.60;5.03;;;;;;;15.38;100.00;101846.56;4956040;29;20042;-77
2023/06/28 03:23:03;;;;;;;7.25;4.40;;;;;;;15.36;100.00;101840.63;4956029;29;20026;-78
2023/06/28 03:25:29;;;;;;;7.18;4.40;;;;;;;15.38;100.00;101843.13;4955778;28;20028;-77
2023/06/28 03:27:54;;;;;;;11.25;4.65;;;;;;;15.39;100.00;101842.19;4938630;29;20102;-77
2023/06/28 03:30:20;;;;;;;8.68;4.72;;;;;;;15.38;100.00;101845.72;4955846;29;20023;-77
2023/06/28 03:32:45;;;;;;;8.63;4.32;;;;;;;15.39;100.00;101845.59;4955858;29;20370;-77
2023/06/28 03:35:10;;;;;;;10.15;5.00;;;;;;;15.36;100.00;101848.44;4955570;29;20027;-77
2023/06/28 03:37:36;;;;;;;7.72;4.60;;;;;;;15.37;100.00;101841.44;4954422;29;20031;-77
2023/06/28 03:40:01;;;;;;;8.23;4.65;;;;;;;15.29;100.00;101823.75;4955346;29;20094;-77
2023/06/28 03:42:27;;;;;;;8.80;4.60;;;;;;;15.25;100.00;101824.91;4938032;29;20079;-78
2023/06/28 03:44:52;;;;;;;8.30;4.60;;;;;;;15.32;100.00;101839.13;4954481;29;20031;-78
2023/06/28 03:47:18;;;;;;;9.07;4.32;;;;;;;15.33;100.00;101839.97;4955485;29;20030;-78
2023/06/28 03:49:45;;;;;;;9.38;4.45;;;;;;;15.32;100.00;101839.13;4955419;29;20027;-77
2023/06/28 03:52:10;;;;;;;12.70;4.63;;;;;;;15.25;100.00;101834.47;4955531;29;20034;-77
2023/06/28 03:54:36;;;;;;;8.77;4.80;;;;;;;15.31;100.00;101839.25;4938073;29;20030;-79
2023/06/28 03:57:01;;;;;;;7.35;3.90;;;;;;;15.19;100.00;101812.28;4954947;29;20027;-79
2023/06/28 03:59:26;;;;;;;10.18;4.55;;;;;;;15.33;100.00;101838.19;4955384;29;20504;-79
2023/06/28 04:01:51;;;;;;;9.57;4.95;;;;;;;15.16;100.00;101822.91;4955395;29;20082;-79
2023/06/28 04:04:17;;;;;;;9.43;3.97;;;;;;;15.31;100.00;101844.44;4955229;29;20536;-79
2023/06/28 04:06:42;;;;;;;8.48;4.28;;;;;;;15.13;100.00;101813.50;4955143;29;20105;-79
2023/06/28 04:09:08;;;;;;;9.20;4.80;;;;;;;15.01;100.00;101798.72;4955190;29;20035;-79
2023/06/28 04:11:33;;;;;;;9.82;4.63;;;;;;;15.29;100.00;101835.91;4954909;28;20027;-79
2023/06/28 04:13:59;;;;;;;9.10;4.50;;;;;;;15.23;100.00;101829.34;4955092;29;20396;-78
2023/06/28 04:16:24;;;;;;;7.60;4.60;;;;;;;15.24;100.00;101827.56;4937887;29;20043;-79
2023/06/28 04:18:51;;;;;;;9.98;4.75;;;;;;;15.23;100.00;101824.13;4955067;29;20542;-79
2023/06/28 04:21:17;;;;;;;8.60;4.68;;;;;;;15.24;100.00;101836.25;4954825;29;20034;-79
2023/06/28 04:23:42;;;;;;;10.95;5.10;;;;;;;15.08;100.00;101807.78;4937780;29;20032;-78
2023/06/28 04:26:07;;;;;;;8.73;4.82;;;;;;;15.06;100.00;101798.44;4954620;28;20046;-79
2023/06/28 04:28:33;;;;;;;9.63;4.63;;;;;;;15.25;100.00;101830.09;4954914;29;20508;-80
2023/06/28 04:30:58;;;;;;;12.35;5.13;;;;;;;15.28;100.00;101836.84;4954913;29;20098;-80
2023/06/28 04:33:23;;;;;;;9.80;4.78;;;;;;;15.24;100.00;101828.44;4954897;29;20404;-80
2023/06/28 04:35:49;;;;;;;9.10;4.70;;;;;;;15.21;100.00;101833.81;4954667;29;20027;-79
2023/06/28 04:38:15;;;;;;;11.32;4.55;;;;;;;15.27;100.00;101832.59;4954498;29;20031;-80
2023/06/28 04:40:41;;;;;;;8.52;4.90;;;;;;;15.27;100.00;101830.81;4954636;29;20026;-82
2023/06/28 04:43:10;;;;;;;9.07;4.93;;;;;;;15.33;100.00;101834.75;4937414;29;20473;-80
2023/06/28 04:45:38;;;;;;;14.60;4.88;;;;;;;15.14;100.00;101812.59;4954655;29;20374;-79
2023/06/28 04:48:05;;;;;;;9.70;5.03;;;;;;;15.32;100.00;101836.53;4954651;29;20051;-80
2023/06/28 04:50:34;;;;;;;11.48;5.18;;;;;;;15.37;100.00;101838.84;4936876;29;20038;-80
2023/06/28 04:53:00;;;;;;;10.75;4.80;;;;;;;15.34;100.00;101821.69;4954807;29;20024;-79
2023/06/28 04:55:32;;;;;;;7.97;4.85;;;;;;;15.46;100.00;101838.22;4954702;29;20031;-80
2023/06/28 04:58:07;;;;;;;9.68;4.68;;;;;;;15.50;100.00;101842.28;4954354;29;20090;-79
2023/06/28 05:00:33;;;;;;;11.05;5.18;;;;;;;15.38;100.00;101823.13;4954530;29;20027;-80
2023/06/28 05:03:02;;;;;;;9.43;5.38;;;;;;;15.53;100.00;101844.66;4954597;29;20027;-79
2023/06/28 05:05:29;;;;;;;9.43;5.50;;;;;;;15.53;100.00;101844.66;4954396;29;20031;-78
2023/06/28 05:07:55;;;;;;;9.77;5.50;;;;;;;15.48;100.00;101825.94;4937469;29;20566;-79
2023/06/28 05:10:21;;;;;;;9.90;5.20;;;;;;;15.57;100.00;101838.34;4954525;29;20393;-79
2023/06/28 05:12:48;;;;;;;9.02;5.20;;;;;;;15.49;100.00;101823.22;4954231;29;20031;-80
2023/06/28 05:15:13;;;;;;;11.30;5.90;;;;;;;15.55;100.00;101822.00;4954246;29;20035;-81
2023/06/28 05:17:39;;;;;;;8.77;4.78;;;;;;;15.38;100.00;101791.06;4936880;29;20117;-78
2023/06/28 05:20:05;;;;;;;10.45;5.40;;;;;;;15.47;100.00;101803.44;4954146;29;20481;-80
2023/06/28 05:22:30;;;;;;;10.18;5.95;;;;;;;15.65;100.00;101820.47;4954334;29;20031;-80
2023/06/28 05:24:55;;;;;;;11.88;5.97;;;;;;;15.72;100.00;101826.88;4954720;29;20020;-80
2023/06/28 05:27:21;;;;;;;10.65;6.05;;;;;;;15.77;100.00;101827.41;4954289;28;20050;-79
2023/06/28 05:29:46;;;;;;;12.98;6.35;;;;;;;15.68;100.00;101804.63;4954321;29;20389;-80
2023/06/28 05:32:13;;;;;;;9.25;5.68;;;;;;;15.86;100.00;101825.13;4954216;28;20393;-80
2023/06/28 05:34:39;;;;;;;12.05;5.80;;;;;;;15.77;100.00;101817.00;4954007;29;20027;-80
2023/06/28 05:37:04;;;;;;;11.40;5.95;;;;;;;15.78;100.00;101808.25;4937989;29;20464;-78
2023/06/28 05:39:30;;;;;;;11.55;5.90;;;;;;;15.86;100.00;101819.91;4957592;29;20055;-79
2023/06/28 05:41:55;;;;;;;10.93;5.63;;;;;;;15.91;100.00;101825.63;4957928;29;20051;-79
2023/06/28 05:44:21;;;;;;;10.93;5.95;;;;;;;15.85;100.00;101820.84;4957740;29;20070;-78
2023/06/28 05:46:46;;;;;;;12.45;5.93;;;;;;;15.86;100.00;101831.16;4940417;29;20057;-79
2023/06/28 05:49:12;;;;;;;13.77;6.07;;;;;;;15.82;100.00;101831.47;4957645;29;20496;-79
2023/06/28 05:51:37;;;;;;;11.07;6.07;;;;;;;15.87;100.00;101826.78;4956022;28;20025;-78
2023/06/28 05:54:02;;;;;;;11.50;6.20;;;;;;;15.90;100.00;101818.75;4958272;29;20489;-80
2023/06/28 05:56:29;;;;;;;11.15;5.93;;;;;;;15.74;100.00;101804.19;4957521;29;20118;-78
2023/06/28 05:58:56;;;;;;;14.40;6.50;;;;;;;15.97;100.00;101830.41;4957443;29;20098;-80
2023/06/28 06:01:21;;;;;;;13.38;6.70;;;;;;;15.99;100.00;101836.34;4957328;29;20023;-76
2023/06/28 06:03:47;;;;;;;9.05;6.50;;;;;;;16.05;100.00;101825.50;4957292;29;20033;-79
2023/06/28 06:06:12;;;;;;;10.23;6.10;;;;;;;16.13;100.00;101831.03;4957125;29;20393;-77
2023/06/28 06:08:37;;;;;;;11.02;6.78;;;;;;;16.15;100.00;101828.31;4957611;29;20027;-80
2023/06/28 06:11:03;;;;;;;11.15;7.05;;;;;;;16.06;100.00;101808.94;4957320;29;20055;-79
2023/06/28 06:13:29;;;;;;;12.63;7.10;;;;;;;16.22;100.00;101819.94;4957181;29;20553;-80
2023/06/28 06:15:54;;;;;;;12.07;5.97;;;;;;;16.04;100.00;101800.41;4957342;29;20058;-80
2023/06/28 06:18:20;;;;;;;11.48;7.05;;;;;;;16.04;100.00;101803.00;4957152;29;20027;-79
2023/06/28 06:20:45;;;;;;;12.88;7.35;;;;;;;15.99;100.00;101779.03;4957187;29;20390;-79
2023/06/28 06:23:10;;;;;;;13.18;7.72;;;;;;;16.00;100.00;101789.34;4957038;29;20078;-79
2023/06/28 06:25:36;;;;;;;14.07;7.43;;;;;;;16.27;100.00;101811.78;4957015;29;20046;-81
2023/06/28 06:28:01;;;;;;;11.88;7.80;;;;;;;16.31;100.00;101806.22;4956787;29;20075;-78
2023/06/28 06:30:28;;;;;;;13.70;7.80;;;;;;;16.19;100.00;101772.41;4956963;29;20027;-80
2023/06/28 06:32:53;;;;;;;13.70;7.45;;;;;;;16.43;100.00;101807.16;4956795;29;20107;-78
2023/06/28 06:35:18;;;;;;;13.32;7.50;;;;;;;16.34;100.00;101785.19;4956707;29;20109;-79
2023/06/28 06:37:45;;;;;;;13.73;6.95;;;;;;;16.46;100.00;101793.88;4956428;28;20074;-76
2023/06/28 06:40:11;;;;;;;10.95;6.88;;;;;;;16.60;100.00;101808.50;4956354;29;20091;-77
2023/06/28 06:42:37;;;;;;;11.77;7.28;;;;;;;16.61;100.00;101810.19;4956433;28;20066;-79
2023/06/28 06:45:02;;;;;;;13.57;7.38;;;;;;;16.59;100.00;101812.91;4956481;29;20038;-79
2023/06/28 06:47:27;;;;;;;11.95;6.90;;;;;;;16.62;100.00;101820.53;4956539;28;20038;-78
2023/06/28 06:49:53;;;;;;;11.77;7.75;;;;;;;16.60;100.00;101819.78;4956682;29;20038;-76
2023/06/28 06:52:18;;;;;;;13.55;7.15;;;;;;;16.64;100.00;101816.03;4956526;29;20323;-77
2023/06/28 06:54:43;;;;;;;12.05;7.13;;;;;;;16.62;100.00;101817.09;4956126;29;20102;-77
2023/06/28 06:57:09;;;;;;;10.15;7.38;;;;;;;16.63;100.00;101823.97;4956426;29;20086;-78
2023/06/28 06:59:34;;;;;;;13.77;7.90;;;;;;;16.41;100.00;101801.19;4956007;29;20070;-77
2023/06/28 07:01:59;;;;;;;13.15;8.60;;;;;;;16.40;100.00;101801.31;4939184;29;20114;-77
2023/06/28 07:04:25;;;;;;;14.40;7.97;;;;;;;16.32;100.00;101796.63;4956341;29;20068;-77
2023/06/28 07:06:50;;;;;;;14.95;7.55;;;;;;;16.51;100.00;101830.88;4956423;29;20101;-77
2023/06/28 07:09:17;;;;;;;15.52;8.63;;;;;;;16.51;100.00;101837.88;4956115;29;20031;-77
2023/06/28 07:11:43;;;;;;;14.40;8.02;;;;;;;16.41;100.00;101819.44;4956305;29;20045;-77
2023/06/28 07:14:08;;;;;;;14.35;8.05;;;;;;;16.55;100.00;101837.56;4955829;29;20393;-77
2023/06/28 07:16:34;;;;;;;13.40;8.02;;;;;;;16.54;100.00;101829.84;4956145;29;20019;-76
2023/06/28 07:18:59;;;;;;;13.18;8.35;;;;;;;16.54;100.00;101843.72;4956012;29;20090;-76
2023/06/28 07:21:25;;;;;;;13.75;8.65;;;;;;;16.58;100.00;101842.53;4938655;29;20049;-76
2023/06/28 07:23:50;;;;;;;11.57;8.57;;;;;;;16.60;100.00;101840.66;4955875;29;20024;-76
2023/06/28 07:26:17;;;;;;;13.55;8.68;;;;;;;16.40;100.00;101809.13;4955764;29;20038;-79
2023/06/28 07:28:42;;;;;;;14.98;8.55;;;;;;;16.44;100.00;101827.06;4955557;29;20030;-77
2023/06/28 07:31:08;;;;;;;14.80;9.07;;;;;;;16.58;100.00;101844.31;4955693;29;20035;-79
2023/06/28 07:33:34;;;;;;;14.75;8.80;;;;;;;16.64;100.00;101844.72;4955649;29;20019;-79
2023/06/28 07:36:00;;;;;;;15.38;8.75;;;;;;;16.64;100.00;101842.09;4955692;29;20469;-78
2023/06/28 07:38:25;;;;;;;16.13;9.65;;;;;;;16.69;100.00;101827.91;4955645;29;20438;-79
2023/06/28 07:40:51;;;;;;;14.05;8.70;;;;;;;16.71;100.00;101823.41;4955327;29;20118;-79
2023/06/28 07:43:18;;;;;;;13.48;8.75;;;;;;;16.87;100.00;101831.78;4938057;29;20138;-79
2023/06/28 07:45:43;;;;;;;12.63;8.32;;;;;;;17.01;100.00;101828.16;4955381;29;20047;-78
2023/06/28 07:48:08;;;;;;;14.77;9.18;;;;;;;17.20;100.00;101837.09;4955426;29;20122;-79
2023/06/28 07:50:34;;;;;;;15.02;7.90;;;;;;;17.32;100.00;101832.78;4955341;29;20027;-79
2023/06/28 07:53:00;;;;;;;13.55;8.50;;;;;;;17.30;100.00;101815.53;4955172;29;20500;-79
2023/06/28 07:55:27;;;;;;;14.85;8.60;;;;;;;17.58;100.00;101832.53;4955082;29;20062;-79
2023/06/28 07:57:54;;;;;;;15.68;8.88;;;;;;;17.60;100.00;101825.41;4955152;29;20039;-79
2023/06/28 08:00:19;;;;;;;13.35;8.55;;;;;;;17.74;100.00;101835.69;4954466;28;20106;-80
2023/06/28 08:02:45;;;;;;;13.25;8.55;;;;;;;17.71;100.00;101828.09;4955015;29;20106;-79
2023/06/28 08:05:10;;;;;;;12.10;7.93;;;;;;;17.75;100.00;101832.13;4937781;29;20481;-79
2023/06/28 08:07:35;;;;;;;16.55;8.80;;;;;;;17.69;100.00;101822.09;4955147;29;20023;-80
2023/06/28 08:10:00;;;;;;;12.35;7.57;;;;;;;17.77;99.63;101833.66;4954784;29;20023;-79
2023/06/28 08:12:27;;;;;;;14.18;7.32;;;;;;;17.61;99.33;101782.72;4954978;29;20027;-80
2023/06/28 08:14:52;;;;;;;13.15;7.13;;;;;;;17.90;99.46;101825.72;4954826;28;20077;-80
2023/06/28 08:17:17;;;;;;;11.65;6.25;;;;;;;17.77;97.68;101798.88;4954586;29;20035;-84
2023/06/28 08:19:43;;;;;;;11.18;5.50;;;;;;;17.98;95.30;101828.53;4937766;29;20118;-80
2023/06/28 08:22:25;;;;;;;11.23;6.32;;;;;;;18.08;96.48;101827.81;4954747;29;20486;-79
2023/06/28 08:24:50;;;;;;;11.82;6.35;;;;;;;17.86;95.92;101779.03;4937183;29;20046;-79
2023/06/28 08:27:15;;;;;;;11.43;5.20;;;;;;;18.22;93.57;101822.34;4954938;29;20023;-80
2023/06/28 08:29:41;;;;;;;12.25;5.90;;;;;;;18.29;91.75;101839.22;4954669;29;20090;-81
2023/06/28 08:32:07;;;;;;;10.30;5.85;;;;;;;18.14;89.88;101811.66;4954858;29;20024;-83
2023/06/28 08:34:32;;;;;;;12.27;6.70;;;;;;;18.15;93.13;101836.84;4954447;29;20027;-84
2023/06/28 08:36:57;;;;;;;11.85;5.35;;;;;;;18.19;93.67;101822.56;4954694;29;20039;-82
2023/06/28 08:39:22;;;;;;;8.45;5.07;;;;;;;18.35;91.85;101846.56;4954335;29;20047;-82
2023/06/28 08:41:48;;;;;;;11.18;5.40;;;;;;;18.28;91.79;101842.75;4954454;29;20031;-82
2023/06/28 08:44:16;;;;;;;9.55;5.10;;;;;;;18.22;89.45;101853.72;4954521;28;20043;-83
2023/06/28 08:46:45;;;;;;;9.20;4.80;;;;;;;18.19;89.88;101852.19;4954687;29;20031;-83
2023/06/28 08:49:11;;;;;;;12.55;5.97;;;;;;;18.01;90.33;101844.00;4954444;29;20034;-82
2023/06/28 08:51:38;;;;;;;12.80;5.57;;;;;;;17.96;90.40;101851.34;4937033;29;20043;-80
2023/06/28 08:54:03;;;;;;;12.18;5.65;;;;;;;17.91;91.74;101845.69;4954256;29;20481;-81
2023/06/28 08:56:29;;;;;;;11.73;5.03;;;;;;;17.72;90.20;101798.41;4954353;29;20030;-84
2023/06/28 08:58:56;;;;;;;12.13;5.85;;;;;;;17.96;90.55;101816.56;4954542;29;20031;-82
2023/06/28 09:01:24;;;;;;;9.40;4.82;;;;;;;17.93;88.41;101798.50;4954330;28;20122;-83
2023/06/28 09:03:50;;;;;;;9.10;5.20;;;;;;;18.30;88.43;101833.88;4954413;29;20031;-83
2023/06/28 09:06:16;;;;;;;14.57;4.63;;;;;;;18.31;90.14;101779.78;4954053;29;20034;-82
2023/06/28 09:08:43;;;;;;;10.35;5.13;;;;;;;18.54;86.36;101783.97;4954333;29;20023;-83
2023/06/28 09:11:08;;;;;;;10.07;5.28;;;;;;;18.73;86.09;101792.97;4954270;28;20557;-82
2023/06/28 09:13:34;;;;;;;13.85;6.05;;;;;;;19.00;84.04;101816.88;4940650;29;20106;-80
2023/06/28 09:16:00;;;;;;;9.75;5.10;;;;;;;19.03;84.18;101819.22;4958135;28;20058;-83
2023/06/28 09:18:26;;;;;;;11.25;4.97;;;;;;;19.04;83.50;101778.16;4958314;29;20027;-84
2023/06/28 09:20:53;;;;;;;9.88;5.13;;;;;;;19.38;81.50;101832.00;4957855;29;20086;-84
2023/06/28 09:23:26;;;;;;;9.02;4.50;;;;;;;19.37;81.91;101829.47;4958057;29;20441;-82
2023/06/28 09:25:52;;;;;;;8.30;4.60;;;;;;;19.25;83.73;101804.34;4957875;29;20445;-84
2023/06/28 09:28:19;;;;;;;9.57;5.13;;;;;;;19.39;82.93;101835.44;4958115;29;20055;-83
2023/06/28 09:30:50;;;;;;;12.68;5.20;;;;;;;19.07;80.48;101798.84;4957497;29;20027;-81
2023/06/28 09:33:17;;;;;;;11.55;5.68;;;;;;;19.26;82.71;101834.78;4957834;29;20106;-82
2023/06/28 09:35:43;;;;;;;11.65;5.45;;;;;;;19.03;81.21;101790.44;4957550;29;20027;-83
2023/06/28 09:38:08;;;;;;;11.30;5.60;;;;;;;19.28;82.51;101835.53;4940649;29;20020;-82
2023/06/28 09:40:35;;;;;;;11.20;5.45;;;;;;;19.23;83.00;101811.50;4957462;29;20576;-83
2023/06/28 09:43:02;;;;;;;10.23;5.10;;;;;;;19.52;80.44;101836.06;4957766;29;20031;-80
2023/06/28 09:45:30;;;;;;;10.18;5.80;;;;;;;19.60;81.33;101833.66;4957717;28;20222;-83
2023/06/28 09:48:03;;;;;;;8.93;4.57;;;;;;;19.93;81.30;101835.16;4957574;29;20027;-83
2023/06/28 09:50:39;;;;;;;8.27;5.00;;;;;;;20.25;78.79;101824.47;4957447;29;20037;-84
2023/06/28 09:53:10;;;;;;;9.27;5.25;;;;;;;20.65;77.50;101817.50;4957524;29;20024;-82
2023/06/28 09:55:41;;;;;;;10.65;5.53;;;;;;;21.01;75.60;101816.78;4957673;29;20039;-84
2023/06/28 09:58:09;;;;;;;11.38;5.35;;;;;;;21.35;73.79;101811.09;4957444;29;20027;-83
2023/06/28 10:00:37;;;;;;;13.30;5.65;;;;;;;21.67;74.14;101816.78;4957231;28;20114;-82
2023/06/28 10:03:06;;;;;;;12.93;4.32;;;;;;;22.16;70.54;101814.78;4957275;29;20066;-80
2023/06/28 10:05:35;;;;;;;10.20;4.55;;;;;;;22.50;69.92;101814.09;4940145;29;20032;-79
2023/06/28 10:08:03;;;;;;;10.85;4.72;;;;;;;22.40;65.86;101789.66;4957208;29;20038;-82
2023/06/28 10:10:30;;;;;;;8.73;4.50;;;;;;;22.60;65.73;101812.22;4957331;29;20027;-79
2023/06/28 10:12:58;;;;;;;10.68;4.68;;;;;;;22.53;65.81;101793.59;4955877;28;20031;-80
2023/06/28 10:15:24;;;;;;;10.90;4.90;;;;;;;22.74;67.02;101788.00;4940291;29;20039;-81
2023/06/28 10:17:51;;;;;;;12.80;4.57;;;;;;;22.67;63.86;101762.44;4956677;28;20082;-80
2023/06/28 10:20:16;;;;;;;9.55;4.55;;;;;;;23.03;64.58;101808.00;4957024;29;20023;-82
2023/06/28 10:22:44;;;;;;;8.75;4.07;;;;;;;23.16;63.34;101809.25;4956527;28;20034;-81
2023/06/28 10:25:11;;;;;;;11.70;5.18;;;;;;;23.16;65.20;101774.16;4956947;29;20051;-80
2023/06/28 10:27:37;;;;;;;9.55;4.80;;;;;;;23.38;61.64;101804.41;4957027;29;20082;-82
2023/06/28 10:30:04;;;;;;;10.82;4.80;;;;;;;23.14;60.76;101773.50;4939145;29;20098;-77
2023/06/28 10:32:29;;;;;;;10.38;4.20;;;;;;;23.16;62.47;101793.44;4956747;29;20054;-80
2023/06/28 10:34:56;;;;;;;7.57;3.80;;;;;;;23.01;61.35;101752.00;4956618;29;20065;-81
2023/06/28 10:37:22;;;;;;;10.57;3.97;;;;;;;23.41;63.56;101791.78;4956591;29;20023;-79
2023/06/28 10:39:51;;;;;;;8.35;4.22;;;;;;;23.33;61.16;101777.72;4956457;29;20414;-80
2023/06/28 10:42:19;;;;;;;9.05;4.70;;;;;;;23.53;60.76;101799.41;4956627;29;20123;-79
2023/06/28 10:44:51;;;;;;;10.43;4.30;;;;;;;23.79;59.94;101815.19;4939229;29;20023;-79
2023/06/28 10:47:16;;;;;;;7.97;4.10;;;;;;;23.88;59.88;101808.97;4956394;29;20035;-78
2023/06/28 10:49:42;;;;;;;10.43;4.85;;;;;;;23.70;58.99;101772.97;4956543;29;20034;-79
2023/06/28 10:52:17;;;;;;;10.60;3.80;;;;;;;23.70;59.94;101778.25;4956368;29;20035;-79
2023/06/28 10:54:42;;;;;;;11.70;4.10;;;;;;;23.88;59.44;101791.31;4956338;29;20042;-77
2023/06/28 10:57:14;;;;;;;10.07;4.05;;;;;;;24.01;59.74;101802.25;4956384;29;20031;-77
2023/06/28 10:59:45;;;;;;;11.85;4.00;;;;;;;23.86;58.03;101795.09;4956466;29;20073;-78
2023/06/28 11:02:11;;;;;;;10.70;4.07;;;;;;;23.88;59.87;101808.97;4956161;29;20106;-79
2023/06/28 11:04:52;;;;;;;8.05;3.63;;;;;;;24.02;60.13;101803.09;4956143;29;20106;-78
2023/06/28 11:07:20;;;;;;;;;;;;;;;24.30;60.94;101785.16;4956573;29;20457;-78
2023/06/28 11:10:17;;;;;;;10.68;4.15;;;;;;;24.19;60.33;101783.66;4956287;29;20031;-79